Time;durP1;ratioP1;P1;durP2;ratioP2;P2;SDS_P1;SDS_P2;PMS_P1;PMS_P2;Temp;Humidity;BMP_temperature;BMP_pressure;BME280_temperature;BME280_humidity;BME280_pressure;Samples;Min_cycle;Max_cycle;Signal;HPM_P1;HPM_P2
2022/12/14 00:01:09;;;;;;;3.08;2.30;;;;;;;;;;1861635;77;27014;-38
2022/12/14 00:03:37;;;;;;;4.58;2.20;;;;;;;;;;1865738;76;26616;-40
2022/12/14 00:06:11;;;;;;;2.77;2.00;;;;;;;;;;1865245;75;26266;-41
2022/12/14 00:08:38;;;;;;;3.42;1.82;;;;;;;;;;1863570;77;26272;-36
2022/12/14 00:11:05;;;;;;;2.92;1.90;;;;;;;;;;1866885;75;26261;-36
2022/12/14 00:13:33;;;;;;;4.03;1.87;;;;;;;;;;1863561;76;26167;-39
2022/12/14 00:16:05;;;;;;;3.42;2.20;;;;;;;;;;1865676;76;26622;-41
2022/12/14 00:18:32;;;;;;;1.52;1.42;;;;;;;;;;1855797;75;26602;-37
2022/12/14 00:21:07;;;;;;;1.87;1.70;;;;;;;;;;1861810;77;26608;-36
2022/12/14 00:23:34;;;;;;;2.77;1.50;;;;;;;;;;1860422;77;26228;-42
2022/12/14 00:26:15;;;;;;;2.25;1.30;;;;;;;;;;1866554;77;26548;-35
2022/12/14 00:28:42;;;;;;;1.72;1.60;;;;;;;;;;1863026;76;26206;-36
2022/12/14 00:31:09;;;;;;;2.27;1.27;;;;;;;;;;1865324;77;26155;-36
2022/12/14 00:33:37;;;;;;;2.10;1.37;;;;;;;;;;1867881;76;26241;-36
2022/12/14 00:36:05;;;;;;;1.50;1.40;;;;;;;;;;1867316;77;26119;-41
2022/12/14 00:38:32;;;;;;;1.72;1.25;;;;;;;;;;1860224;77;26956;-36
2022/12/14 00:41:00;;;;;;;1.40;1.12;;;;;;;;;;1862697;75;26176;-35
2022/12/14 00:43:28;;;;;;;1.27;1.22;;;;;;;;;;1861372;77;26624;-40
2022/12/14 00:45:55;;;;;;;1.35;1.20;;;;;;;;;;1866744;76;26147;-40
2022/12/14 00:48:23;;;;;;;1.05;1.05;;;;;;;;;;1866876;77;26198;-46
2022/12/14 00:50:52;;;;;;;1.50;1.30;;;;;;;;;;1867605;76;26683;-35
2022/12/14 00:53:19;;;;;;;1.90;1.17;;;;;;;;;;1866928;76;26261;-36
2022/12/14 00:55:47;;;;;;;1.35;1.20;;;;;;;;;;1863322;76;26639;-40
2022/12/14 00:58:16;;;;;;;0.95;0.95;;;;;;;;;;1867331;76;26159;-36
2022/12/14 01:00:43;;;;;;;1.40;1.30;;;;;;;;;;1864974;77;26167;-37
2022/12/14 01:03:12;;;;;;;1.10;1.00;;;;;;;;;;1855190;77;26202;-38
2022/12/14 01:05:40;;;;;;;1.05;1.05;;;;;;;;;;1864780;76;26218;-40
2022/12/14 01:08:07;;;;;;;0.90;0.90;;;;;;;;;;1863536;75;26802;-38
2022/12/14 01:10:36;;;;;;;0.90;0.90;;;;;;;;;;1864158;76;26225;-45
2022/12/14 01:13:03;;;;;;;1.15;0.90;;;;;;;;;;1864916;75;26281;-40
2022/12/14 01:15:30;;;;;;;0.85;0.85;;;;;;;;;;1863144;77;26156;-37
2022/12/14 01:17:58;;;;;;;0.90;0.90;;;;;;;;;;1864560;77;26203;-35
2022/12/14 01:20:25;;;;;;;0.90;0.90;;;;;;;;;;1859744;77;26254;-38
2022/12/14 01:22:55;;;;;;;1.27;1.20;;;;;;;;;;1864370;77;26281;-36
2022/12/14 01:25:22;;;;;;;1.00;1.00;;;;;;;;;;1863350;77;26163;-39
2022/12/14 01:27:50;;;;;;;1.00;1.00;;;;;;;;;;1860018;77;26147;-37
2022/12/14 01:30:18;;;;;;;0.93;0.80;;;;;;;;;;1862981;77;26267;-35
2022/12/14 01:32:45;;;;;;;0.85;0.85;;;;;;;;;;1864218;77;26218;-38
2022/12/14 01:35:12;;;;;;;0.90;0.90;;;;;;;;;;1865253;76;26684;-35
2022/12/14 01:37:40;;;;;;;0.90;0.90;;;;;;;;;;1864012;77;26235;-37
2022/12/14 01:40:07;;;;;;;0.70;0.70;;;;;;;;;;1860927;77;26224;-41
2022/12/14 01:42:36;;;;;;;0.70;0.70;;;;;;;;;;1861945;76;26265;-35
2022/12/14 01:45:04;;;;;;;1.00;1.00;;;;;;;;;;1862245;76;26161;-39
2022/12/14 01:47:35;;;;;;;0.78;0.78;;;;;;;;;;1860079;77;26588;-42
2022/12/14 01:50:04;;;;;;;0.98;0.98;;;;;;;;;;1863867;76;26246;-36
2022/12/14 01:52:33;;;;;;;0.80;0.80;;;;;;;;;;1859059;77;26299;-37
2022/12/14 01:55:02;;;;;;;0.60;0.60;;;;;;;;;;1860581;76;26300;-36
2022/12/14 01:57:30;;;;;;;0.80;0.80;;;;;;;;;;1861290;76;26223;-38
2022/12/14 01:59:58;;;;;;;2.92;0.80;;;;;;;;;;1863774;76;26221;-35
2022/12/14 02:02:26;;;;;;;4.05;1.20;;;;;;;;;;1864607;77;25615;-44
2022/12/14 02:04:54;;;;;;;1.00;1.00;;;;;;;;;;1860947;77;26278;-37
2022/12/14 02:07:22;;;;;;;1.95;1.00;;;;;;;;;;1859616;76;26265;-42
2022/12/14 02:09:51;;;;;;;1.85;0.68;;;;;;;;;;1866436;77;26656;-36
2022/12/14 02:12:22;;;;;;;0.90;0.90;;;;;;;;;;1859351;77;26556;-35
2022/12/14 02:14:51;;;;;;;0.70;0.70;;;;;;;;;;1861855;76;26151;-38
2022/12/14 02:17:19;;;;;;;0.70;0.70;;;;;;;;;;1864172;76;26171;-39
2022/12/14 02:19:48;;;;;;;0.70;0.70;;;;;;;;;;1866470;75;26253;-40
2022/12/14 02:22:34;;;;;;;0.82;0.70;;;;;;;;;;1867110;77;26605;-41
2022/12/14 02:25:19;;;;;;;0.70;0.70;;;;;;;;;;1863747;77;26151;-35
2022/12/14 02:27:57;;;;;;;0.70;0.70;;;;;;;;;;1860106;77;25610;-36
2022/12/14 02:30:25;;;;;;;0.68;0.68;;;;;;;;;;1865135;76;26192;-42
2022/12/14 02:32:57;;;;;;;1.42;0.70;;;;;;;;;;1866485;76;26209;-37
2022/12/14 02:35:26;;;;;;;0.68;0.68;;;;;;;;;;1865995;76;26155;-38
2022/12/14 02:37:56;;;;;;;0.93;0.70;;;;;;;;;;1863913;76;26279;-35
2022/12/14 02:40:27;;;;;;;0.50;0.50;;;;;;;;;;1867707;75;26200;-38
2022/12/14 02:42:59;;;;;;;0.60;0.60;;;;;;;;;;1863403;77;26692;-37
2022/12/14 02:45:28;;;;;;;0.75;0.60;;;;;;;;;;1864401;76;26242;-37
2022/12/14 02:47:57;;;;;;;0.60;0.60;;;;;;;;;;1861064;76;26214;-38
2022/12/14 02:50:35;;;;;;;1.17;0.60;;;;;;;;;;1867355;76;26253;-36
2022/12/14 02:53:09;;;;;;;0.60;0.60;;;;;;;;;;1866479;76;26171;-38
2022/12/14 02:55:38;;;;;;;0.65;0.65;;;;;;;;;;1863168;76;26581;-42
2022/12/14 02:58:07;;;;;;;0.53;0.50;;;;;;;;;;1867410;76;26995;-39
2022/12/14 03:00:36;;;;;;;0.53;0.53;;;;;;;;;;1864668;76;26636;-44
2022/12/14 03:03:04;;;;;;;0.70;0.70;;;;;;;;;;1867314;77;26582;-40
2022/12/14 03:05:31;;;;;;;0.70;0.70;;;;;;;;;;1863539;76;26207;-37
2022/12/14 03:08:00;;;;;;;0.60;0.60;;;;;;;;;;1867242;77;26738;-40
2022/12/14 03:10:46;;;;;;;0.70;0.70;;;;;;;;;;1868490;76;26292;-41
2022/12/14 03:13:14;;;;;;;0.60;0.60;;;;;;;;;;1867308;75;26164;-36
2022/12/14 03:15:43;;;;;;;0.60;0.60;;;;;;;;;;1867400;76;26154;-36
2022/12/14 03:18:12;;;;;;;1.57;0.65;;;;;;;;;;1860893;76;26723;-36
2022/12/14 03:20:41;;;;;;;0.50;0.50;;;;;;;;;;1866219;76;26216;-35
2022/12/14 03:23:13;;;;;;;0.60;0.60;;;;;;;;;;1868250;76;26260;-36
2022/12/14 03:25:41;;;;;;;0.50;0.50;;;;;;;;;;1867021;77;26640;-39
2022/12/14 03:28:16;;;;;;;0.60;0.60;;;;;;;;;;1867984;76;26257;-43
2022/12/14 03:30:45;;;;;;;0.47;0.47;;;;;;;;;;1861306;77;26693;-37
2022/12/14 03:33:16;;;;;;;0.80;0.80;;;;;;;;;;1851192;77;26703;-35
2022/12/14 03:35:51;;;;;;;0.60;0.60;;;;;;;;;;1868382;75;26217;-37
2022/12/14 03:38:35;;;;;;;0.42;0.42;;;;;;;;;;1862142;76;26233;-35
2022/12/14 03:41:04;;;;;;;0.50;0.50;;;;;;;;;;1861916;75;26253;-36
2022/12/14 03:43:32;;;;;;;0.60;0.60;;;;;;;;;;1866195;76;26261;-37
2022/12/14 03:46:04;;;;;;;0.50;0.50;;;;;;;;;;1858507;76;26221;-37
2022/12/14 03:48:33;;;;;;;0.50;0.50;;;;;;;;;;1868459;77;26162;-40
2022/12/14 03:51:05;;;;;;;0.60;0.60;;;;;;;;;;1860477;76;26202;-35
2022/12/14 03:53:39;;;;;;;0.60;0.60;;;;;;;;;;1864268;77;26201;-36
2022/12/14 03:56:11;;;;;;;0.50;0.50;;;;;;;;;;1866189;76;26128;-36
2022/12/14 03:58:46;;;;;;;0.60;0.60;;;;;;;;;;1865148;77;26651;-35
2022/12/14 04:01:20;;;;;;;0.40;0.40;;;;;;;;;;1865130;76;26225;-35
2022/12/14 04:03:58;;;;;;;0.60;0.60;;;;;;;;;;1868023;77;26230;-36
2022/12/14 04:06:26;;;;;;;0.60;0.60;;;;;;;;;;1868280;76;26507;-35
2022/12/14 04:08:58;;;;;;;0.60;0.60;;;;;;;;;;1866345;76;26202;-36
2022/12/14 04:19:47;;;;;;;0.62;0.50;;;;;;;;;;1861187;75;26603;-35
2022/12/14 04:22:18;;;;;;;0.45;0.45;;;;;;;;;;1860935;77;26699;-37
2022/12/14 04:27:40;;;;;;;0.47;0.47;;;;;;;;;;1865999;77;26776;-36
2022/12/14 04:30:08;;;;;;;1.65;0.50;;;;;;;;;;1867790;76;26633;-35
2022/12/14 04:32:37;;;;;;;0.47;0.47;;;;;;;;;;1868466;76;26168;-44
2022/12/14 04:35:15;;;;;;;0.70;0.50;;;;;;;;;;1868271;76;26234;-39
2022/12/14 04:37:43;;;;;;;0.50;0.50;;;;;;;;;;1867375;76;26163;-36
2022/12/14 04:40:13;;;;;;;0.70;0.50;;;;;;;;;;1868101;77;26124;-35
2022/12/14 04:42:41;;;;;;;0.50;0.50;;;;;;;;;;1865366;76;26681;-35
2022/12/14 04:45:13;;;;;;;0.50;0.50;;;;;;;;;;1858636;77;26226;-35
2022/12/14 04:47:42;;;;;;;0.50;0.50;;;;;;;;;;1861547;76;26197;-36
2022/12/14 04:50:11;;;;;;;0.42;0.42;;;;;;;;;;1866864;77;26686;-36
2022/12/14 04:52:46;;;;;;;0.40;0.40;;;;;;;;;;1866072;76;26629;-35
2022/12/14 04:55:26;;;;;;;0.50;0.50;;;;;;;;;;1868271;76;26608;-42
2022/12/14 04:58:10;;;;;;;0.40;0.40;;;;;;;;;;1808909;77;26228;-38
2022/12/14 05:00:39;;;;;;;0.40;0.40;;;;;;;;;;1858110;77;26301;-38
2022/12/14 05:03:23;;;;;;;0.60;0.60;;;;;;;;;;1862545;76;26159;-39
2022/12/14 05:06:00;;;;;;;0.50;0.50;;;;;;;;;;1867585;76;26601;-39
2022/12/14 05:08:29;;;;;;;0.55;0.55;;;;;;;;;;1865399;76;25655;-36
2022/12/14 05:10:58;;;;;;;0.60;0.60;;;;;;;;;;1871857;76;26706;-36
2022/12/14 05:13:27;;;;;;;0.60;0.60;;;;;;;;;;1870990;76;26716;-36
2022/12/14 05:15:55;;;;;;;0.60;0.60;;;;;;;;;;1870004;75;26232;-40
2022/12/14 05:18:23;;;;;;;0.60;0.60;;;;;;;;;;1875486;76;26268;-40
2022/12/14 05:20:50;;;;;;;0.50;0.50;;;;;;;;;;1873281;76;26791;-38
2022/12/14 05:23:17;;;;;;;0.40;0.40;;;;;;;;;;1869893;76;26155;-35
2022/12/14 05:25:45;;;;;;;0.53;0.53;;;;;;;;;;1871978;76;26722;-36
2022/12/14 05:28:12;;;;;;;0.60;0.60;;;;;;;;;;1871893;76;26166;-36
2022/12/14 05:30:39;;;;;;;0.50;0.50;;;;;;;;;;1874788;76;26155;-36
2022/12/14 05:33:08;;;;;;;0.40;0.40;;;;;;;;;;1872146;76;26202;-38
2022/12/14 05:35:35;;;;;;;0.53;0.53;;;;;;;;;;1874898;76;26201;-37
2022/12/14 05:38:03;;;;;;;0.60;0.60;;;;;;;;;;1875016;76;26213;-36
2022/12/14 05:40:30;;;;;;;0.50;0.50;;;;;;;;;;1875382;76;26155;-38
2022/12/14 05:43:04;;;;;;;0.60;0.60;;;;;;;;;;1871763;76;26201;-41
2022/12/14 05:45:32;;;;;;;0.50;0.50;;;;;;;;;;1872290;76;26163;-40
2022/12/14 05:47:59;;;;;;;0.50;0.50;;;;;;;;;;1869858;76;26276;-37
2022/12/14 05:50:26;;;;;;;0.60;0.60;;;;;;;;;;1865386;76;26278;-36
2022/12/14 05:52:54;;;;;;;0.80;0.60;;;;;;;;;;1870004;76;26219;-38
2022/12/14 05:55:24;;;;;;;0.60;0.60;;;;;;;;;;1871796;76;26255;-41
2022/12/14 05:57:52;;;;;;;0.65;0.65;;;;;;;;;;1872474;76;26710;-40
2022/12/14 06:00:19;;;;;;;0.40;0.40;;;;;;;;;;1868322;76;26609;-41
2022/12/14 06:02:46;;;;;;;0.50;0.50;;;;;;;;;;1865079;76;26233;-37
2022/12/14 06:05:14;;;;;;;0.60;0.60;;;;;;;;;;1870158;76;26698;-44
2022/12/14 06:07:41;;;;;;;0.45;0.45;;;;;;;;;;1856716;75;26340;-37
2022/12/14 06:10:08;;;;;;;0.50;0.50;;;;;;;;;;1854374;77;26242;-36
2022/12/14 06:12:36;;;;;;;1.45;0.57;;;;;;;;;;1856605;77;26207;-41
2022/12/14 06:15:03;;;;;;;0.53;0.53;;;;;;;;;;1850052;76;26203;-38
2022/12/14 06:17:30;;;;;;;0.68;0.68;;;;;;;;;;1858100;77;26236;-43
2022/12/14 06:19:57;;;;;;;0.60;0.60;;;;;;;;;;1868617;76;26194;-35
2022/12/14 06:22:25;;;;;;;0.65;0.65;;;;;;;;;;1849152;77;26262;-40
2022/12/14 06:24:52;;;;;;;0.62;0.62;;;;;;;;;;1850357;77;26202;-35
2022/12/14 06:27:19;;;;;;;1.85;1.22;;;;;;;;;;1854082;77;26205;-37
2022/12/14 06:29:46;;;;;;;2.10;0.53;;;;;;;;;;1856848;77;26204;-36
2022/12/14 06:32:14;;;;;;;0.60;0.60;;;;;;;;;;1857414;77;26208;-39
2022/12/14 06:34:41;;;;;;;0.68;0.68;;;;;;;;;;1855708;77;26199;-43
2022/12/14 06:37:08;;;;;;;0.93;0.82;;;;;;;;;;1847349;77;26148;-35
2022/12/14 06:39:36;;;;;;;1.92;1.12;;;;;;;;;;1858841;77;26990;-36
2022/12/14 06:42:03;;;;;;;2.52;1.10;;;;;;;;;;1860512;77;26208;-39
2022/12/14 06:44:30;;;;;;;4.17;1.42;;;;;;;;;;1858729;77;26172;-45
2022/12/14 06:46:58;;;;;;;2.50;1.22;;;;;;;;;;1838298;77;26271;-35
2022/12/14 06:49:25;;;;;;;2.83;1.20;;;;;;;;;;1849409;77;26188;-38
2022/12/14 06:51:52;;;;;;;1.57;1.20;;;;;;;;;;1854807;77;26749;-35
2022/12/14 06:54:19;;;;;;;3.33;1.20;;;;;;;;;;1858899;77;26685;-37
2022/12/14 06:56:47;;;;;;;1.87;1.25;;;;;;;;;;1853185;77;26147;-36
2022/12/14 06:59:15;;;;;;;2.80;1.20;;;;;;;;;;1859166;77;26155;-47
2022/12/14 07:01:43;;;;;;;1.20;1.10;;;;;;;;;;1851719;77;26167;-38
2022/12/14 07:04:10;;;;;;;1.37;1.22;;;;;;;;;;1855811;77;26196;-39
2022/12/14 07:06:39;;;;;;;1.98;1.15;;;;;;;;;;1857042;77;26765;-35
2022/12/14 07:09:07;;;;;;;3.20;1.20;;;;;;;;;;1858831;77;27064;-35
2022/12/14 07:11:34;;;;;;;1.40;1.30;;;;;;;;;;1858637;77;26191;-38
2022/12/14 07:14:06;;;;;;;2.35;1.20;;;;;;;;;;1855418;76;26711;-36
2022/12/14 07:16:33;;;;;;;2.40;1.00;;;;;;;;;;1854659;76;26620;-35
2022/12/14 07:19:01;;;;;;;1.50;1.40;;;;;;;;;;1857035;77;26245;-49
2022/12/14 07:21:28;;;;;;;1.47;1.17;;;;;;;;;;1854740;77;26274;-37
2022/12/14 07:23:55;;;;;;;1.60;1.25;;;;;;;;;;1853956;77;26718;-38
2022/12/14 07:26:24;;;;;;;1.00;1.00;;;;;;;;;;1855523;77;26671;-36
2022/12/14 07:28:52;;;;;;;1.27;1.10;;;;;;;;;;1859762;77;26626;-36
2022/12/14 07:31:20;;;;;;;1.07;1.00;;;;;;;;;;1853746;77;26295;-35
2022/12/14 07:33:48;;;;;;;1.87;1.00;;;;;;;;;;1849980;77;26275;-42
2022/12/14 07:36:17;;;;;;;2.05;1.07;;;;;;;;;;1860048;77;26346;-36
2022/12/14 07:38:44;;;;;;;0.90;0.90;;;;;;;;;;1857329;77;26305;-35
2022/12/14 07:41:13;;;;;;;1.30;1.20;;;;;;;;;;1856579;77;27036;-37
2022/12/14 07:43:41;;;;;;;0.88;0.88;;;;;;;;;;1850017;77;26257;-36
2022/12/14 07:46:10;;;;;;;3.65;1.00;;;;;;;;;;1849468;77;26213;-35
2022/12/14 07:48:38;;;;;;;0.98;0.98;;;;;;;;;;1859740;77;26623;-38
2022/12/14 07:51:06;;;;;;;0.80;0.80;;;;;;;;;;1859763;77;26244;-35
2022/12/14 07:53:34;;;;;;;0.85;0.85;;;;;;;;;;1858433;77;26225;-40
2022/12/14 07:56:03;;;;;;;0.70;0.70;;;;;;;;;;1855371;77;26707;-42
2022/12/14 07:58:31;;;;;;;1.05;0.80;;;;;;;;;;1856238;77;26665;-43
2022/12/14 08:01:14;;;;;;;4.10;1.07;;;;;;;;;;1841911;77;27655;-35
2022/12/14 08:03:46;;;;;;;2.08;1.00;;;;;;;;;;1821573;76;27820;-35
2022/12/14 08:06:14;;;;;;;2.52;0.95;;;;;;;;;;1846979;76;26272;-35
2022/12/14 08:08:41;;;;;;;4.83;1.00;;;;;;;;;;1862618;75;26229;-38
2022/12/14 08:11:09;;;;;;;3.98;1.10;;;;;;;;;;1861617;77;26289;-35
2022/12/14 08:13:42;;;;;;;0.72;0.72;;;;;;;;;;1865199;77;26243;-40
2022/12/14 08:16:07;;;;;;;13.45;0.85;;;;;;;;;;1861618;75;26163;-36
2022/12/14 08:18:34;;;;;;;0.98;0.80;;;;;;;;;;1861336;75;26226;-34
2022/12/14 08:21:03;;;;;;;1.17;0.80;;;;;;;;;;1864097;75;26143;-36
2022/12/14 08:23:31;;;;;;;2.00;0.82;;;;;;;;;;1866025;77;26187;-38
2022/12/14 08:25:59;;;;;;;0.75;0.75;;;;;;;;;;1863191;77;26758;-35
2022/12/14 08:28:26;;;;;;;2.22;1.00;;;;;;;;;;1865085;77;26198;-35
2022/12/14 08:30:54;;;;;;;0.80;0.80;;;;;;;;;;1862804;77;26987;-35
2022/12/14 08:33:21;;;;;;;2.08;0.80;;;;;;;;;;1860327;75;26152;-35
2022/12/14 08:35:48;;;;;;;5.47;0.98;;;;;;;;;;1858389;77;26230;-42
2022/12/14 08:38:16;;;;;;;4.35;1.10;;;;;;;;;;1854212;77;26147;-34
2022/12/14 08:40:43;;;;;;;2.58;1.00;;;;;;;;;;1865144;77;26151;-35
2022/12/14 08:43:10;;;;;;;4.75;1.10;;;;;;;;;;1864035;77;26632;-36
2022/12/14 08:45:38;;;;;;;14.73;1.00;;;;;;;;;;1865644;77;26330;-36
2022/12/14 08:48:05;;;;;;;1.00;0.80;;;;;;;;;;1857537;75;26202;-38
2022/12/14 08:50:32;;;;;;;2.10;0.85;;;;;;;;;;1864308;77;26128;-35
2022/12/14 08:52:59;;;;;;;1.35;0.80;;;;;;;;;;1851533;77;26246;-39
2022/12/14 08:55:27;;;;;;;0.80;0.80;;;;;;;;;;1859681;77;26171;-38
2022/12/14 08:57:54;;;;;;;3.50;0.95;;;;;;;;;;1853875;77;26210;-36
2022/12/14 09:00:23;;;;;;;0.75;0.75;;;;;;;;;;1861648;75;26210;-36
2022/12/14 09:02:50;;;;;;;0.85;0.85;;;;;;;;;;1858978;77;27011;-36
2022/12/14 09:05:17;;;;;;;2.90;1.05;;;;;;;;;;1860920;77;26172;-36
2022/12/14 09:07:45;;;;;;;1.57;0.90;;;;;;;;;;1862619;77;26242;-36
2022/12/14 09:10:12;;;;;;;2.95;0.95;;;;;;;;;;1872213;76;26179;-35
2022/12/14 09:12:40;;;;;;;2.30;0.80;;;;;;;;;;1872939;76;26240;-35
2022/12/14 09:15:07;;;;;;;2.50;1.10;;;;;;;;;;1874540;75;26613;-35
2022/12/14 09:17:35;;;;;;;4.55;0.95;;;;;;;;;;1868717;76;27059;-36
2022/12/14 09:20:02;;;;;;;2.67;1.00;;;;;;;;;;1867410;75;26225;-38
2022/12/14 09:22:30;;;;;;;3.30;1.00;;;;;;;;;;1868466;76;26183;-40
2022/12/14 09:24:57;;;;;;;1.05;0.80;;;;;;;;;;1874819;76;26717;-35
2022/12/14 09:27:24;;;;;;;4.05;0.98;;;;;;;;;;1874714;76;26233;-36
2022/12/14 09:29:52;;;;;;;7.05;0.80;;;;;;;;;;1867824;76;26224;-36
2022/12/14 09:32:19;;;;;;;0.75;0.75;;;;;;;;;;1871431;76;26208;-36
2022/12/14 09:34:46;;;;;;;1.72;0.78;;;;;;;;;;1873615;76;26794;-34
2022/12/14 09:37:14;;;;;;;4.00;0.80;;;;;;;;;;1872519;75;26593;-34
2022/12/14 09:39:42;;;;;;;1.77;0.75;;;;;;;;;;1866757;75;26243;-36
2022/12/14 09:42:29;;;;;;;1.65;0.80;;;;;;;;;;1865841;75;26217;-35
2022/12/14 09:45:01;;;;;;;1.12;0.78;;;;;;;;;;1873619;76;26155;-36
2022/12/14 09:47:32;;;;;;;0.80;0.80;;;;;;;;;;1851239;76;26233;-38
2022/12/14 09:50:04;;;;;;;0.55;0.55;;;;;;;;;;1872600;76;26221;-35
2022/12/14 09:52:50;;;;;;;0.82;0.80;;;;;;;;;;1871669;75;26155;-36
2022/12/14 09:55:25;;;;;;;0.70;0.60;;;;;;;;;;1874982;76;26213;-39
2022/12/14 09:57:56;;;;;;;1.50;0.70;;;;;;;;;;1871152;76;26321;-36
2022/12/14 10:00:23;;;;;;;0.50;0.50;;;;;;;;;;1867039;76;26206;-37
2022/12/14 10:03:04;;;;;;;0.60;0.60;;;;;;;;;;1870582;76;27376;-33
2022/12/14 10:05:39;;;;;;;0.70;0.70;;;;;;;;;;1866617;76;26189;-35
2022/12/14 10:08:11;;;;;;;2.25;0.75;;;;;;;;;;1873882;76;26221;-34
2022/12/14 10:10:45;;;;;;;0.60;0.50;;;;;;;;;;1865075;76;27108;-36
2022/12/14 10:13:23;;;;;;;0.95;0.65;;;;;;;;;;1862309;77;26206;-35
2022/12/14 10:15:52;;;;;;;1.42;0.50;;;;;;;;;;1851859;77;26737;-40
2022/12/14 10:18:37;;;;;;;0.80;0.80;;;;;;;;;;1857222;76;26644;-37
2022/12/14 10:21:15;;;;;;;2.37;0.60;;;;;;;;;;1860774;75;26291;-34
2022/12/14 10:23:44;;;;;;;0.82;0.50;;;;;;;;;;1859633;76;26241;-35
2022/12/14 10:26:13;;;;;;;1.22;0.47;;;;;;;;;;1862093;76;26288;-42
2022/12/14 10:28:41;;;;;;;1.25;0.68;;;;;;;;;;1861246;76;26674;-38
2022/12/14 10:31:10;;;;;;;0.55;0.55;;;;;;;;;;1863990;76;26609;-34
2022/12/14 10:33:39;;;;;;;0.60;0.60;;;;;;;;;;1865025;77;26613;-35
2022/12/14 10:36:11;;;;;;;2.20;0.60;;;;;;;;;;1855662;76;26159;-35
2022/12/14 10:38:40;;;;;;;0.55;0.55;;;;;;;;;;1852806;76;26183;-36
2022/12/14 10:41:09;;;;;;;1.85;0.60;;;;;;;;;;1863921;75;26268;-34
2022/12/14 10:43:49;;;;;;;0.60;0.60;;;;;;;;;;1851507;76;26260;-34
2022/12/14 10:46:30;;;;;;;0.95;0.55;;;;;;;;;;1862266;77;26209;-33
2022/12/14 10:49:02;;;;;;;0.72;0.50;;;;;;;;;;1859436;77;26245;-34
2022/12/14 10:51:31;;;;;;;0.60;0.60;;;;;;;;;;1865872;76;26176;-37
2022/12/14 10:54:00;;;;;;;0.50;0.50;;;;;;;;;;1867225;76;26225;-34
2022/12/14 10:56:31;;;;;;;0.85;0.60;;;;;;;;;;1864543;76;26244;-35
2022/12/14 10:59:23;;;;;;;0.68;0.68;;;;;;;;;;1867109;76;26508;-35
2022/12/14 11:01:49;;;;;;;1.17;0.70;;;;;;;;;;1865498;77;26183;-35
2022/12/14 11:04:17;;;;;;;2.52;0.70;;;;;;;;;;1849395;76;26195;-34
2022/12/14 11:06:45;;;;;;;2.10;0.85;;;;;;;;;;1847255;77;26210;-37
2022/12/14 11:09:21;;;;;;;1.37;0.90;;;;;;;;;;1859803;76;26237;-39
2022/12/14 11:11:50;;;;;;;0.70;0.70;;;;;;;;;;1856251;77;26246;-35
2022/12/14 11:14:18;;;;;;;0.93;0.93;;;;;;;;;;1863381;77;26312;-37
2022/12/14 11:16:46;;;;;;;1.10;0.95;;;;;;;;;;1858897;75;28400;-37
2022/12/14 11:19:14;;;;;;;0.80;0.80;;;;;;;;;;1868494;75;26671;-35
2022/12/14 11:21:42;;;;;;;1.20;0.93;;;;;;;;;;1863223;77;26766;-37
2022/12/14 11:24:11;;;;;;;0.90;0.90;;;;;;;;;;1861995;77;26171;-39
2022/12/14 11:26:39;;;;;;;3.05;1.05;;;;;;;;;;1862700;75;26249;-35
2022/12/14 11:29:08;;;;;;;0.90;0.90;;;;;;;;;;1858991;75;26155;-41
2022/12/14 11:31:40;;;;;;;2.70;1.25;;;;;;;;;;1861657;76;26183;-35
2022/12/14 11:34:09;;;;;;;1.20;1.10;;;;;;;;;;1865106;77;26235;-40
2022/12/14 11:36:37;;;;;;;3.05;1.20;;;;;;;;;;1857146;76;26663;-36
2022/12/14 11:39:15;;;;;;;1.37;1.22;;;;;;;;;;1863519;75;26124;-37
2022/12/14 11:41:43;;;;;;;2.90;1.47;;;;;;;;;;1859014;77;26760;-35
2022/12/14 11:44:18;;;;;;;4.60;2.00;;;;;;;;;;1864164;77;26230;-36
2022/12/14 11:46:53;;;;;;;6.78;2.30;;;;;;;;;;1861657;77;26260;-39
2022/12/14 11:49:31;;;;;;;6.45;2.30;;;;;;;;;;1863912;77;26750;-39
2022/12/14 11:52:02;;;;;;;7.45;2.30;;;;;;;;;;1860493;76;26636;-36
2022/12/14 11:54:30;;;;;;;5.53;2.65;;;;;;;;;;1860696;77;26798;-39
2022/12/14 11:57:06;;;;;;;6.00;2.67;;;;;;;;;;1861899;77;26155;-37
2022/12/14 11:59:44;;;;;;;8.15;3.00;;;;;;;;;;1860671;77;26315;-36
2022/12/14 12:02:29;;;;;;;10.23;3.25;;;;;;;;;;1863231;76;26155;-36
2022/12/14 12:04:58;;;;;;;8.60;3.40;;;;;;;;;;1842075;77;27726;-37
2022/12/14 12:07:33;;;;;;;7.05;2.72;;;;;;;;;;1862329;76;26581;-36
2022/12/14 12:10:07;;;;;;;8.13;2.90;;;;;;;;;;1856858;75;26350;-39
2022/12/14 12:12:35;;;;;;;5.67;2.80;;;;;;;;;;1861463;75;26556;-41
2022/12/14 12:15:02;;;;;;;8.23;2.95;;;;;;;;;;1865054;76;26622;-35
2022/12/14 12:17:31;;;;;;;4.72;2.65;;;;;;;;;;1861843;76;26620;-41
2022/12/14 12:19:58;;;;;;;5.87;2.42;;;;;;;;;;1860895;75;26736;-40
2022/12/14 12:22:25;;;;;;;4.58;2.50;;;;;;;;;;1862444;75;26187;-42
2022/12/14 12:24:54;;;;;;;3.98;2.20;;;;;;;;;;1866552;76;26334;-37
2022/12/14 12:27:22;;;;;;;2.95;2.20;;;;;;;;;;1859878;76;26593;-35
2022/12/14 12:29:54;;;;;;;4.22;2.40;;;;;;;;;;1864716;76;26154;-35
2022/12/14 12:32:22;;;;;;;6.12;2.20;;;;;;;;;;1868121;76;26655;-34
2022/12/14 12:35:03;;;;;;;2.85;1.90;;;;;;;;;;1859470;77;26175;-36
2022/12/14 12:37:32;;;;;;;2.42;1.80;;;;;;;;;;1864444;75;26219;-39
2022/12/14 12:40:03;;;;;;;1.90;1.57;;;;;;;;;;1868117;76;26592;-36
2022/12/14 12:42:41;;;;;;;2.27;1.80;;;;;;;;;;1858057;76;26716;-36
2022/12/14 12:45:10;;;;;;;2.40;1.80;;;;;;;;;;1862520;76;26249;-36
2022/12/14 12:47:39;;;;;;;3.22;1.52;;;;;;;;;;1853842;76;26338;-39
2022/12/14 12:50:08;;;;;;;2.22;1.57;;;;;;;;;;1857242;77;26596;-35
2022/12/14 12:52:40;;;;;;;1.95;1.50;;;;;;;;;;1863777;76;27080;-38
2022/12/14 12:55:15;;;;;;;3.70;1.60;;;;;;;;;;1856095;77;26233;-38
2022/12/14 12:57:43;;;;;;;1.67;1.42;;;;;;;;;;1858494;76;26195;-36
2022/12/14 13:00:18;;;;;;;1.25;1.25;;;;;;;;;;1862842;76;26256;-36
2022/12/14 13:02:53;;;;;;;1.17;1.17;;;;;;;;;;1861796;75;26219;-35
2022/12/14 13:05:22;;;;;;;1.45;1.17;;;;;;;;;;1865349;76;26229;-37
2022/12/14 13:07:53;;;;;;;1.35;1.25;;;;;;;;;;1857799;75;26238;-37
2022/12/14 13:10:25;;;;;;;1.00;1.00;;;;;;;;;;1859588;76;26596;-36
2022/12/14 13:12:54;;;;;;;1.20;1.10;;;;;;;;;;1874122;75;26229;-41
2022/12/14 13:15:22;;;;;;;1.05;1.05;;;;;;;;;;1874870;76;26135;-36
2022/12/14 13:18:03;;;;;;;1.45;1.20;;;;;;;;;;1870682;75;27787;-38
2022/12/14 13:20:32;;;;;;;1.10;1.00;;;;;;;;;;1871352;76;26641;-45
2022/12/14 13:23:01;;;;;;;1.00;1.00;;;;;;;;;;1871087;76;26342;-44
2022/12/14 13:25:30;;;;;;;1.00;1.00;;;;;;;;;;1868658;76;26256;-38
2022/12/14 13:27:58;;;;;;;1.05;0.90;;;;;;;;;;1869656;75;28589;-36
2022/12/14 13:30:33;;;;;;;0.90;0.90;;;;;;;;;;1868380;76;26776;-38
2022/12/14 13:33:11;;;;;;;1.72;0.90;;;;;;;;;;1861135;75;27648;-36
2022/12/14 13:35:39;;;;;;;2.98;0.90;;;;;;;;;;1872223;76;26174;-36
2022/12/14 13:38:14;;;;;;;1.40;1.10;;;;;;;;;;1873514;76;26213;-37
2022/12/14 13:40:55;;;;;;;0.80;0.80;;;;;;;;;;1868981;75;26814;-35
2022/12/14 13:43:33;;;;;;;1.30;0.90;;;;;;;;;;1872884;76;26261;-41
2022/12/14 13:46:20;;;;;;;0.70;0.70;;;;;;;;;;1856821;76;26321;-42
2022/12/14 13:48:49;;;;;;;0.90;0.90;;;;;;;;;;1872620;76;26643;-38
2022/12/14 13:51:18;;;;;;;6.35;0.93;;;;;;;;;;1869768;75;26821;-37
2022/12/14 13:53:47;;;;;;;1.45;0.70;;;;;;;;;;1872550;76;26229;-37
2022/12/14 13:56:21;;;;;;;0.93;0.60;;;;;;;;;;1874018;76;26279;-34
2022/12/14 13:58:50;;;;;;;6.20;0.90;;;;;;;;;;1870080;76;26159;-34
2022/12/14 14:01:36;;;;;;;4.70;0.80;;;;;;;;;;1873880;76;26229;-36
2022/12/14 14:04:14;;;;;;;1.50;0.80;;;;;;;;;;1862941;76;26147;-45
2022/12/14 14:06:46;;;;;;;0.72;0.70;;;;;;;;;;1867910;75;26167;-39
2022/12/14 14:09:27;;;;;;;0.80;0.80;;;;;;;;;;1867065;75;26606;-36
2022/12/14 14:11:58;;;;;;;0.70;0.70;;;;;;;;;;1854153;76;26718;-37
2022/12/14 14:14:36;;;;;;;1.02;0.80;;;;;;;;;;1865573;76;26643;-37
2022/12/14 14:17:05;;;;;;;0.70;0.70;;;;;;;;;;1867736;76;26151;-38
2022/12/14 14:19:34;;;;;;;0.78;0.70;;;;;;;;;;1878448;75;26279;-37
2022/12/14 14:22:08;;;;;;;0.65;0.65;;;;;;;;;;1872520;76;26252;-36
2022/12/14 14:24:54;;;;;;;0.55;0.55;;;;;;;;;;1868884;76;26190;-41
2022/12/14 14:27:31;;;;;;;0.70;0.70;;;;;;;;;;1857251;76;26261;-42
2022/12/14 14:29:58;;;;;;;0.40;0.40;;;;;;;;;;1853872;76;26673;-37
2022/12/14 14:32:27;;;;;;;0.60;0.60;;;;;;;;;;1867139;76;26290;-39
2022/12/14 14:34:55;;;;;;;0.70;0.70;;;;;;;;;;1864349;75;26269;-37
2022/12/14 14:37:24;;;;;;;0.55;0.55;;;;;;;;;;1875050;76;26918;-37
2022/12/14 14:40:02;;;;;;;0.75;0.70;;;;;;;;;;1859133;76;26187;-36
2022/12/14 14:42:31;;;;;;;0.60;0.60;;;;;;;;;;1871045;76;26780;-37
2022/12/14 14:45:00;;;;;;;0.60;0.60;;;;;;;;;;1872183;76;26197;-36
2022/12/14 14:47:34;;;;;;;0.70;0.70;;;;;;;;;;1867629;76;26513;-38
2022/12/14 14:50:03;;;;;;;0.50;0.50;;;;;;;;;;1871680;76;26253;-42
2022/12/14 14:52:32;;;;;;;0.70;0.70;;;;;;;;;;1863654;76;26215;-38
2022/12/14 14:55:01;;;;;;;0.57;0.57;;;;;;;;;;1850713;76;26163;-37
2022/12/14 14:57:32;;;;;;;0.50;0.50;;;;;;;;;;1868126;76;26232;-36
2022/12/14 15:00:01;;;;;;;0.60;0.60;;;;;;;;;;1872280;76;26180;-38
2022/12/14 15:02:32;;;;;;;0.60;0.60;;;;;;;;;;1873445;76;26166;-41
2022/12/14 15:05:01;;;;;;;0.60;0.60;;;;;;;;;;1843078;76;26195;-38
2022/12/14 15:07:29;;;;;;;0.70;0.70;;;;;;;;;;1870043;75;26283;-37
2022/12/14 15:09:58;;;;;;;0.57;0.57;;;;;;;;;;1874868;76;26159;-37
2022/12/14 15:12:43;;;;;;;0.50;0.50;;;;;;;;;;1870205;76;26992;-39